createdAt,value
2023-02-05T00:01:35.684Z,5.60
2023-02-05T00:04:03.117Z,5.60
2023-02-05T00:06:30.261Z,5.60
2023-02-05T00:08:57.847Z,5.60
2023-02-05T00:11:25.088Z,5.70
2023-02-05T00:13:52.183Z,5.60
2023-02-05T00:16:21.106Z,5.50
2023-02-05T00:18:48.422Z,5.50
2023-02-05T00:21:16.278Z,5.50
2023-02-05T00:23:43.495Z,5.40
2023-02-05T00:26:13.469Z,5.30
2023-02-05T00:28:41.591Z,5.30
2023-02-05T00:31:11.565Z,5.30
2023-02-05T00:33:39.195Z,5.20
2023-02-05T00:36:06.798Z,5.20
2023-02-05T00:38:33.702Z,5.20
2023-02-05T00:41:00.730Z,5.10
2023-02-05T00:43:27.833Z,5.10
2023-02-05T00:45:55.218Z,5.10
2023-02-05T00:48:22.763Z,5.00
2023-02-05T00:50:51.026Z,5.00
2023-02-05T00:53:19.450Z,5.00
2023-02-05T00:55:46.438Z,5.00
2023-02-05T00:58:13.345Z,4.90
2023-02-05T01:00:40.385Z,4.90
2023-02-05T01:03:07.772Z,4.90
2023-02-05T01:05:36.133Z,4.90
2023-02-05T01:08:04.020Z,4.90
2023-02-05T01:10:31.248Z,4.80
2023-02-05T01:12:58.248Z,4.80
2023-02-05T01:15:25.502Z,4.80
2023-02-05T01:17:52.826Z,4.70
2023-02-05T01:20:20.490Z,4.70
2023-02-05T01:22:47.686Z,4.60
2023-02-05T01:25:15.490Z,4.60
2023-02-05T01:27:42.625Z,4.60
2023-02-05T01:30:11.902Z,4.60
2023-02-05T01:32:40.567Z,4.60
2023-02-05T01:35:08.660Z,4.60
2023-02-05T01:37:35.714Z,4.50
2023-02-05T01:40:04.249Z,4.50
2023-02-05T01:42:32.769Z,4.50
2023-02-05T01:45:21.499Z,4.50
2023-02-05T01:47:50.062Z,4.50
2023-02-05T01:50:21.858Z,4.50
2023-02-05T01:52:49.410Z,4.50
2023-02-05T01:55:16.811Z,4.50
2023-02-05T01:57:44.213Z,4.40
2023-02-05T02:00:12.027Z,4.40
2023-02-05T02:02:42.476Z,4.30
2023-02-05T02:05:13.171Z,4.30
2023-02-05T02:07:40.709Z,4.30
2023-02-05T02:10:10.070Z,4.20
2023-02-05T02:12:39.509Z,4.20
2023-02-05T02:15:11.338Z,4.20
2023-02-05T02:17:41.345Z,4.20
2023-02-05T02:20:15.857Z,4.20
2023-02-05T02:22:48.574Z,4.20
2023-02-05T02:25:34.243Z,4.10
2023-02-05T02:28:29.456Z,4.10
2023-02-05T02:31:10.285Z,4.10
2023-02-05T02:33:48.262Z,4.10
2023-02-05T02:36:36.264Z,4.10
2023-02-05T02:39:18.034Z,4.10
2023-02-05T02:42:15.582Z,4.10
2023-02-05T02:44:52.605Z,4.10
2023-02-05T02:47:24.507Z,4.10
2023-02-05T02:50:00.002Z,4.00
2023-02-05T02:52:29.728Z,4.00
2023-02-05T02:55:00.703Z,4.00
2023-02-05T02:57:29.290Z,4.00
2023-02-05T03:00:01.248Z,4.00
2023-02-05T03:02:32.876Z,4.00
2023-02-05T03:05:05.348Z,4.00
2023-02-05T03:07:38.248Z,4.00
2023-02-05T03:10:32.897Z,4.00
2023-02-05T03:13:00.186Z,4.00
2023-02-05T03:15:28.189Z,3.90
2023-02-05T03:17:56.274Z,3.90
2023-02-05T03:20:29.887Z,3.90
2023-02-05T03:22:57.156Z,3.80
2023-02-05T03:25:27.963Z,3.80
2023-02-05T03:27:58.261Z,3.70
2023-02-05T03:30:57.690Z,3.70
2023-02-05T03:33:36.831Z,3.70
2023-02-05T03:36:26.717Z,3.60
2023-02-05T03:39:11.938Z,3.60
2023-02-05T03:41:56.296Z,3.60
2023-02-05T03:44:44.721Z,3.60
2023-02-05T03:47:57.048Z,3.50
2023-02-05T03:50:40.023Z,3.50
2023-02-05T03:53:28.967Z,3.40
2023-02-05T03:56:05.401Z,3.40
2023-02-05T03:58:40.434Z,3.40
2023-02-05T04:01:11.657Z,3.40
2023-02-05T04:03:39.658Z,3.40
2023-02-05T04:06:08.031Z,3.40
2023-02-05T04:08:35.383Z,3.50
2023-02-05T04:11:03.234Z,3.50
2023-02-05T04:13:30.407Z,3.50
2023-02-05T04:15:58.345Z,3.60
2023-02-05T04:18:25.383Z,3.60
2023-02-05T04:20:53.933Z,3.60
2023-02-05T04:23:24.415Z,3.60
2023-02-05T04:25:55.972Z,3.60
2023-02-05T04:28:43.163Z,3.60
2023-02-05T04:31:15.125Z,3.60
2023-02-05T04:33:43.597Z,3.60
2023-02-05T04:36:14.404Z,3.60
2023-02-05T04:38:41.506Z,3.50
2023-02-05T04:41:08.987Z,3.50
2023-02-05T04:43:36.284Z,3.50
2023-02-05T04:46:07.943Z,3.50
2023-02-05T04:48:35.798Z,3.50
2023-02-05T04:51:10.758Z,3.50
2023-02-05T04:53:38.398Z,3.50
2023-02-05T04:56:10.947Z,3.50
2023-02-05T04:58:38.529Z,3.50
2023-02-05T05:01:10.936Z,3.50
2023-02-05T05:03:37.914Z,3.50
2023-02-05T05:06:06.308Z,3.50
2023-02-05T05:08:33.783Z,3.50
2023-02-05T05:11:06.375Z,3.50
2023-02-05T05:13:35.431Z,3.50
2023-02-05T05:16:03.219Z,3.50
2023-02-05T05:18:30.304Z,3.50
2023-02-05T05:20:57.645Z,3.50
2023-02-05T05:23:24.894Z,3.50
2023-02-05T05:25:51.959Z,3.50
2023-02-05T05:28:19.320Z,3.50
2023-02-05T05:30:46.514Z,3.40
2023-02-05T05:33:14.057Z,3.40
2023-02-05T05:35:41.373Z,3.40
2023-02-05T05:38:08.690Z,3.40
2023-02-05T05:40:54.444Z,3.30
2023-02-05T05:43:40.484Z,3.30
2023-02-05T05:46:08.692Z,3.30
2023-02-05T05:48:35.815Z,3.30
2023-02-05T05:51:03.164Z,3.30
2023-02-05T05:53:32.721Z,3.40
2023-02-05T05:55:59.892Z,3.40
2023-02-05T05:58:27.002Z,3.50
2023-02-05T06:00:54.942Z,3.50
2023-02-05T06:03:22.395Z,3.60
2023-02-05T06:05:49.560Z,3.70
2023-02-05T06:08:16.886Z,3.60
2023-02-05T06:10:44.265Z,3.70
2023-02-05T06:13:11.757Z,3.70
2023-02-05T06:15:39.431Z,3.80
2023-02-05T06:18:06.415Z,3.80
2023-02-05T06:20:33.435Z,3.80
2023-02-05T06:23:00.619Z,3.90
2023-02-05T06:25:27.886Z,3.90
2023-02-05T06:27:55.115Z,3.90
2023-02-05T06:30:22.657Z,3.90
2023-02-05T06:32:49.797Z,3.90
2023-02-05T06:35:16.916Z,3.90
2023-02-05T06:37:47.649Z,3.90
2023-02-05T06:40:18.262Z,3.90
2023-02-05T06:42:46.061Z,3.80
2023-02-05T06:45:13.154Z,3.80
2023-02-05T06:47:40.592Z,3.90
2023-02-05T06:50:08.089Z,3.90
2023-02-05T06:52:35.244Z,4.00
2023-02-05T06:55:02.364Z,4.00
2023-02-05T06:57:29.645Z,4.10
2023-02-05T06:59:56.757Z,4.20
2023-02-05T07:02:23.963Z,4.30
2023-02-05T07:04:51.067Z,4.40
2023-02-05T07:07:18.166Z,4.50
2023-02-05T07:09:45.310Z,4.70
2023-02-05T07:12:12.282Z,4.80
2023-02-05T07:14:39.980Z,4.90
2023-02-05T07:17:08.078Z,5.00
2023-02-05T07:19:36.073Z,5.10
2023-02-05T07:22:03.790Z,5.20
2023-02-05T07:24:31.150Z,5.30
2023-02-05T07:26:58.169Z,5.40
2023-02-05T07:29:25.151Z,5.50
2023-02-05T07:31:52.456Z,5.70
2023-02-05T07:34:19.743Z,5.80
2023-02-05T07:36:50.437Z,5.90
2023-02-05T07:39:17.716Z,6.00
2023-02-05T07:41:44.849Z,6.10
2023-02-05T07:44:21.656Z,6.40
2023-02-05T07:46:48.849Z,6.70
2023-02-05T07:49:15.907Z,6.90
2023-02-05T07:51:42.974Z,7.00
2023-02-05T07:54:11.159Z,7.00
2023-02-05T07:56:38.189Z,6.90
2023-02-05T07:59:06.641Z,6.90
2023-02-05T08:01:34.434Z,6.90
2023-02-05T08:04:01.662Z,7.20
2023-02-05T08:06:29.161Z,7.50
2023-02-05T08:08:56.202Z,7.90
2023-02-05T08:11:23.163Z,8.00
2023-02-05T08:13:50.084Z,8.00
2023-02-05T08:16:17.040Z,8.00
2023-02-05T08:18:48.889Z,8.00
2023-02-05T08:21:16.344Z,8.10
2023-02-05T08:23:43.324Z,8.20
2023-02-05T08:26:10.261Z,8.50
2023-02-05T08:28:37.181Z,8.80
2023-02-05T08:31:13.335Z,9.10
2023-02-05T08:33:40.458Z,9.40
2023-02-05T08:36:07.959Z,9.60
2023-02-05T08:38:34.862Z,9.70
2023-02-05T08:41:12.749Z,9.90
2023-02-05T08:43:47.772Z,10.00
2023-02-05T08:46:18.766Z,10.10
2023-02-05T08:48:46.833Z,10.30
2023-02-05T08:51:15.350Z,10.60
2023-02-05T08:53:43.039Z,10.80
2023-02-05T08:56:11.016Z,10.90
2023-02-05T08:58:39.046Z,11.00
2023-02-05T09:01:09.727Z,11.10
2023-02-05T09:03:36.945Z,11.00
2023-02-05T09:06:09.620Z,11.10
2023-02-05T09:08:36.764Z,11.10
2023-02-05T09:11:04.330Z,11.20
2023-02-05T09:13:31.343Z,11.40
2023-02-05T09:15:58.340Z,11.90
2023-02-05T09:18:26.632Z,12.10
2023-02-05T09:20:54.592Z,12.20
2023-02-05T09:23:22.483Z,12.20
2023-02-05T09:25:49.504Z,12.10
2023-02-05T09:28:16.816Z,12.00
2023-02-05T09:30:45.822Z,12.10
2023-02-05T09:33:14.263Z,12.00
2023-02-05T09:35:42.310Z,11.70
2023-02-05T09:38:12.710Z,11.40
2023-02-05T09:41:03.051Z,11.30
2023-02-05T09:43:56.143Z,10.90
2023-02-05T09:46:41.288Z,10.60
2023-02-05T09:49:18.278Z,10.40
2023-02-05T09:51:49.918Z,10.30
2023-02-05T09:54:30.226Z,10.20
2023-02-05T09:57:03.851Z,10.20
2023-02-05T09:59:32.110Z,10.20
2023-02-05T10:02:16.676Z,10.30
2023-02-05T10:04:43.915Z,10.40
2023-02-05T10:07:34.170Z,10.50
2023-02-05T10:10:22.364Z,10.50
2023-02-05T10:13:07.564Z,10.60
2023-02-05T10:16:10.812Z,10.50
2023-02-05T10:18:51.388Z,10.40
2023-02-05T10:21:24.340Z,10.40
2023-02-05T10:24:09.017Z,10.30
2023-02-05T10:26:44.827Z,10.20
2023-02-05T10:29:16.850Z,10.10
2023-02-05T10:32:07.875Z,10.20
2023-02-05T10:34:50.010Z,10.30
2023-02-05T10:37:19.473Z,10.10
2023-02-05T10:39:47.953Z,9.90
2023-02-05T10:42:41.320Z,9.50
2023-02-05T10:45:28.902Z,9.20
2023-02-05T10:48:08.030Z,9.00
2023-02-05T10:50:56.265Z,8.90
2023-02-05T10:53:25.586Z,9.00
2023-02-05T10:55:52.737Z,9.10
2023-02-05T10:59:04.609Z,9.10
2023-02-05T11:01:38.199Z,9.00
2023-02-05T11:04:19.373Z,9.00
2023-02-05T11:06:50.088Z,8.90
2023-02-05T11:09:26.118Z,8.80
2023-02-05T11:11:55.650Z,8.70
2023-02-05T11:14:31.349Z,8.70
2023-02-05T11:16:58.837Z,8.60
2023-02-05T11:19:29.130Z,8.60
2023-02-05T11:22:01.869Z,8.60
2023-02-05T11:24:41.676Z,8.60
2023-02-05T11:27:36.835Z,8.60
2023-02-05T11:30:49.670Z,8.50
2023-02-05T11:33:24.847Z,8.60
2023-02-05T11:36:05.220Z,8.60
2023-02-05T11:38:46.114Z,8.60
2023-02-05T11:41:28.772Z,8.50
2023-02-05T11:43:58.612Z,8.50
2023-02-05T11:46:28.378Z,8.50
2023-02-05T11:49:01.097Z,8.60
2023-02-05T11:51:44.659Z,8.60
2023-02-05T11:54:32.929Z,8.70
2023-02-05T11:57:19.867Z,8.90
2023-02-05T11:59:57.118Z,9.00
2023-02-05T12:02:45.552Z,9.10
2023-02-05T12:05:12.573Z,9.30
2023-02-05T12:07:54.398Z,9.50
2023-02-05T12:10:38.228Z,9.70
2023-02-05T12:13:22.838Z,9.80
2023-02-05T12:16:28.211Z,9.80
2023-02-05T12:19:15.155Z,9.70
2023-02-05T12:21:55.198Z,9.40
2023-02-05T12:25:00.163Z,9.20
2023-02-05T12:27:43.117Z,8.90
2023-02-05T12:30:15.995Z,8.70
2023-02-05T12:33:07.244Z,8.70
2023-02-05T12:35:56.175Z,8.50
2023-02-05T12:38:32.143Z,8.30
2023-02-05T12:41:17.468Z,8.10
2023-02-05T12:43:48.095Z,8.10
2023-02-05T12:46:29.510Z,8.00
2023-02-05T12:49:20.187Z,7.90
2023-02-05T12:51:56.891Z,7.90
2023-02-05T12:54:29.620Z,7.90
2023-02-05T12:56:59.541Z,7.80
2023-02-05T12:59:48.734Z,7.80
2023-02-05T13:02:41.875Z,7.70
2023-02-05T13:05:17.998Z,7.70
2023-02-05T13:08:17.684Z,7.60
2023-02-05T13:10:58.786Z,7.70
2023-02-05T13:13:33.127Z,7.80
2023-02-05T13:16:09.499Z,7.80
2023-02-05T13:18:43.039Z,7.80
2023-02-05T13:21:38.445Z,7.80
2023-02-05T13:24:41.317Z,7.70
2023-02-05T13:27:53.080Z,7.70
2023-02-05T13:30:28.178Z,7.70
2023-02-05T13:32:59.030Z,7.60
2023-02-05T13:35:28.053Z,7.70
2023-02-05T13:38:22.430Z,7.60
2023-02-05T13:40:49.188Z,7.70
2023-02-05T13:43:35.314Z,7.60
2023-02-05T13:46:15.613Z,7.60
2023-02-05T13:48:54.305Z,7.60
2023-02-05T13:51:27.126Z,7.60
2023-02-05T13:54:38.328Z,7.60
2023-02-05T13:57:13.883Z,7.60
2023-02-05T13:59:51.645Z,7.60
2023-02-05T14:02:43.456Z,7.50
2023-02-05T14:05:13.623Z,7.50
2023-02-05T14:07:50.266Z,7.40
2023-02-05T14:10:31.561Z,7.50
2023-02-05T14:13:17.492Z,7.50
2023-02-05T14:15:45.242Z,7.50
2023-02-05T14:18:33.753Z,7.50
2023-02-05T14:21:00.717Z,7.50
2023-02-05T14:23:46.479Z,7.50
2023-02-05T14:26:13.702Z,7.50
2023-02-05T14:28:46.081Z,7.50
2023-02-05T14:31:48.820Z,7.50
2023-02-05T14:34:32.581Z,7.50
2023-02-05T14:37:00.107Z,7.50
2023-02-05T14:39:32.955Z,7.40
2023-02-05T14:42:05.383Z,7.40
2023-02-05T14:44:35.370Z,7.40
2023-02-05T14:47:07.922Z,7.30
2023-02-05T14:49:40.365Z,7.30
2023-02-05T14:52:07.924Z,7.30
2023-02-05T14:54:45.703Z,7.20
2023-02-05T14:57:22.112Z,7.20
2023-02-05T14:59:56.939Z,7.20
2023-02-05T15:02:51.734Z,7.10
2023-02-05T15:05:44.803Z,7.00
2023-02-05T15:08:34.492Z,7.00
2023-02-05T15:11:34.997Z,7.00
2023-02-05T15:14:24.397Z,7.00
2023-02-05T15:17:06.598Z,7.00
2023-02-05T15:19:40.980Z,7.00
2023-02-05T15:22:38.928Z,7.00
2023-02-05T15:25:21.807Z,6.90
2023-02-05T15:28:01.609Z,6.80
2023-02-05T15:30:54.062Z,6.80
2023-02-05T15:33:34.878Z,6.70
2023-02-05T15:36:11.006Z,6.70
2023-02-05T15:39:24.502Z,6.60
2023-02-05T15:41:56.312Z,6.60
2023-02-05T15:44:32.340Z,6.60
2023-02-05T15:47:03.686Z,6.60
2023-02-05T15:49:44.229Z,6.60
2023-02-05T15:52:25.050Z,6.60
2023-02-05T15:54:57.330Z,6.60
2023-02-05T15:57:32.824Z,6.50
2023-02-05T16:00:02.302Z,6.50
2023-02-05T16:02:33.068Z,6.50
2023-02-05T16:05:18.953Z,6.40
2023-02-05T16:07:55.464Z,6.40
2023-02-05T16:10:28.196Z,6.30
2023-02-05T16:12:59.015Z,6.30
2023-02-05T16:15:33.044Z,6.30
2023-02-05T16:18:01.388Z,6.30
2023-02-05T16:20:35.510Z,6.20
2023-02-05T16:23:04.865Z,6.20
2023-02-05T16:25:34.975Z,6.20
2023-02-05T16:28:30.912Z,6.20
2023-02-05T16:30:59.962Z,6.20
2023-02-05T16:33:38.295Z,6.20
2023-02-05T16:36:15.159Z,6.20
2023-02-05T16:38:42.184Z,6.10
2023-02-05T16:41:27.332Z,6.20
2023-02-05T16:43:55.888Z,6.10
2023-02-05T16:46:27.398Z,6.20
2023-02-05T16:49:00.172Z,6.10
2023-02-05T16:51:32.636Z,6.20
2023-02-05T16:54:27.761Z,6.10
2023-02-05T16:56:59.096Z,6.10
2023-02-05T16:59:33.625Z,6.10
2023-02-05T17:02:03.200Z,6.10
2023-02-05T17:04:37.709Z,6.00
2023-02-05T17:07:15.817Z,6.10
2023-02-05T17:09:42.980Z,6.10
2023-02-05T17:12:21.890Z,6.10
2023-02-05T17:15:04.373Z,6.10
2023-02-05T17:17:32.346Z,6.10
2023-02-05T17:20:04.377Z,6.10
2023-02-05T17:22:32.033Z,6.10
2023-02-05T17:24:59.510Z,6.10
2023-02-05T17:27:32.677Z,6.10
2023-02-05T17:30:00.707Z,6.10
2023-02-05T17:32:29.380Z,6.00
2023-02-05T17:34:56.405Z,6.00
2023-02-05T17:37:23.544Z,6.00
2023-02-05T17:39:51.533Z,6.00
2023-02-05T17:42:25.970Z,6.00
2023-02-05T17:44:53.768Z,6.00
2023-02-05T17:47:20.814Z,6.00
2023-02-05T17:49:47.860Z,6.00
2023-02-05T17:52:15.676Z,6.00
2023-02-05T17:54:43.567Z,6.00
2023-02-05T17:57:19.766Z,5.90
2023-02-05T17:59:47.795Z,5.90
2023-02-05T18:02:15.493Z,5.90
2023-02-05T18:04:44.751Z,5.90
2023-02-05T18:07:28.323Z,5.90
2023-02-05T18:09:55.336Z,5.90
2023-02-05T18:12:22.352Z,5.90
2023-02-05T18:14:50.296Z,5.90
2023-02-05T18:17:17.644Z,5.90
2023-02-05T18:19:44.692Z,5.90
2023-02-05T18:22:11.814Z,5.80
2023-02-05T18:24:39.322Z,5.80
2023-02-05T18:27:08.259Z,5.80
2023-02-05T18:29:36.378Z,5.90
2023-02-05T18:32:04.339Z,5.90
2023-02-05T18:34:31.358Z,5.90
2023-02-05T18:36:58.925Z,5.80
2023-02-05T18:39:29.601Z,5.80
2023-02-05T18:41:57.195Z,5.80
2023-02-05T18:44:25.210Z,5.80
2023-02-05T18:46:52.425Z,5.80
2023-02-05T18:49:19.530Z,5.80
2023-02-05T18:51:46.465Z,5.80
2023-02-05T18:54:13.268Z,5.80
2023-02-05T18:56:40.343Z,5.80
2023-02-05T18:59:12.826Z,5.80
2023-02-05T19:01:40.593Z,5.80
2023-02-05T19:04:10.343Z,5.80
2023-02-05T19:06:39.947Z,5.80
2023-02-05T19:09:07.470Z,5.80
2023-02-05T19:11:40.682Z,5.80
2023-02-05T19:14:11.198Z,5.80
2023-02-05T19:16:39.445Z,5.80
2023-02-05T19:19:06.336Z,5.90
2023-02-05T19:21:33.242Z,5.90
2023-02-05T19:24:05.379Z,6.00
2023-02-05T19:26:32.919Z,6.00
2023-02-05T19:29:00.661Z,6.00
2023-02-05T19:31:29.812Z,6.10
2023-02-05T19:33:57.111Z,6.10
2023-02-05T19:36:24.569Z,6.10
2023-02-05T19:38:51.388Z,6.10
2023-02-05T19:41:19.612Z,6.10
2023-02-05T19:43:50.668Z,6.10
2023-02-05T19:46:27.707Z,6.10
2023-02-05T19:48:55.924Z,6.10
2023-02-05T19:51:22.930Z,6.10
2023-02-05T19:53:49.869Z,6.10
2023-02-05T19:56:18.309Z,6.10
2023-02-05T19:58:47.272Z,6.10
2023-02-05T20:01:25.115Z,6.10
2023-02-05T20:03:54.207Z,6.10
2023-02-05T20:06:23.585Z,6.10
2023-02-05T20:08:50.966Z,6.10
2023-02-05T20:11:18.632Z,6.10
2023-02-05T20:13:45.944Z,6.10
2023-02-05T20:16:18.885Z,6.20
2023-02-05T20:18:46.640Z,6.20
2023-02-05T20:21:20.616Z,6.10
2023-02-05T20:23:48.845Z,6.10
2023-02-05T20:26:22.299Z,6.10
2023-02-05T20:29:14.374Z,6.10
2023-02-05T20:31:45.921Z,6.10
2023-02-05T20:34:44.679Z,6.10
2023-02-05T20:37:11.952Z,6.00
2023-02-05T20:39:42.024Z,6.00
2023-02-05T20:42:10.740Z,6.00
2023-02-05T20:44:37.763Z,6.00
2023-02-05T20:47:07.243Z,6.00
2023-02-05T20:49:35.718Z,6.00
2023-02-05T20:52:02.928Z,6.00
2023-02-05T20:54:29.959Z,6.00
2023-02-05T20:56:59.207Z,6.00
2023-02-05T20:59:32.551Z,5.90
2023-02-05T21:02:00.332Z,5.90
2023-02-05T21:04:27.558Z,5.90
2023-02-05T21:06:54.571Z,5.90
2023-02-05T21:09:22.190Z,6.00
2023-02-05T21:11:51.113Z,5.90
2023-02-05T21:14:18.074Z,5.90
2023-02-05T21:16:45.032Z,5.90
2023-02-05T21:19:12.414Z,5.90
2023-02-05T21:21:39.973Z,5.90
2023-02-05T21:24:11.669Z,5.90
2023-02-05T21:26:41.131Z,5.90
2023-02-05T21:29:14.105Z,5.90
2023-02-05T21:31:49.149Z,5.90
2023-02-05T21:34:21.699Z,5.80
2023-02-05T21:36:50.024Z,5.80
2023-02-05T21:39:20.046Z,5.80
2023-02-05T21:41:47.930Z,5.80
2023-02-05T21:44:15.668Z,5.80
2023-02-05T21:46:43.324Z,5.80
2023-02-05T21:49:11.586Z,5.80
2023-02-05T21:51:40.136Z,5.80
2023-02-05T21:54:07.389Z,5.80
2023-02-05T21:56:40.632Z,5.80
2023-02-05T21:59:08.117Z,5.80
2023-02-05T22:01:36.777Z,5.80
2023-02-05T22:04:11.235Z,5.70
2023-02-05T22:06:39.073Z,5.80
2023-02-05T22:09:08.865Z,5.80
2023-02-05T22:11:36.811Z,5.80
2023-02-05T22:14:03.725Z,5.80
2023-02-05T22:16:32.871Z,5.80
2023-02-05T22:19:01.337Z,5.80
2023-02-05T22:21:34.194Z,5.80
2023-02-05T22:24:03.036Z,5.80
2023-02-05T22:26:32.540Z,5.80
2023-02-05T22:29:00.749Z,5.80
2023-02-05T22:31:29.024Z,5.80
2023-02-05T22:33:56.962Z,5.80
2023-02-05T22:36:26.197Z,5.80
2023-02-05T22:38:53.706Z,5.80
2023-02-05T22:41:28.991Z,5.80
2023-02-05T22:43:57.409Z,5.80
2023-02-05T22:46:27.627Z,5.80
2023-02-05T22:48:55.968Z,5.70
2023-02-05T22:51:50.922Z,5.80
2023-02-05T22:54:18.168Z,5.80
2023-02-05T22:56:45.755Z,5.80
2023-02-05T22:59:13.342Z,5.80
2023-02-05T23:01:40.300Z,5.80
2023-02-05T23:04:11.539Z,5.80
2023-02-05T23:06:41.017Z,5.80
2023-02-05T23:09:17.010Z,5.80
2023-02-05T23:11:44.675Z,5.80
2023-02-05T23:14:14.166Z,5.70
2023-02-05T23:16:43.070Z,5.80
2023-02-05T23:19:13.492Z,5.70
2023-02-05T23:21:41.741Z,5.80
2023-02-05T23:24:09.857Z,5.70
2023-02-05T23:26:42.261Z,5.80
2023-02-05T23:29:12.007Z,5.70
2023-02-05T23:31:39.235Z,5.70
2023-02-05T23:34:06.550Z,5.70
2023-02-05T23:36:33.871Z,5.70
2023-02-05T23:39:00.878Z,5.70
2023-02-05T23:41:37.128Z,5.70
2023-02-05T23:44:15.586Z,5.70
2023-02-05T23:46:43.942Z,5.70
2023-02-05T23:49:11.348Z,5.70
2023-02-05T23:51:38.575Z,5.70
2023-02-05T23:54:06.051Z,5.70
2023-02-05T23:56:33.148Z,5.70
2023-02-05T23:59:00.212Z,5.70
